Time;durP1;ratioP1;P1;durP2;ratioP2;P2;SDS_P1;SDS_P2;PMS_P1;PMS_P2;Temp;Humidity;BMP_temperature;BMP_pressure;BME280_temperature;BME280_humidity;BME280_pressure;Samples;Min_cycle;Max_cycle;Signal;HPM_P1;HPM_P2
2023/11/03 00:00:32;;;;;;;3.75;1.52;;;10.00;99.90;;;;;;5077879;28;20226;-60
2023/11/03 00:03:02;;;;;;;5.25;1.50;;;9.90;99.90;;;;;;5080528;28;20225;-62
2023/11/03 00:05:29;;;;;;;4.38;1.40;;;9.90;99.90;;;;;;5079873;28;20201;-61
2023/11/03 00:07:56;;;;;;;2.30;1.45;;;9.90;99.90;;;;;;5081795;28;20200;-61
2023/11/03 00:10:23;;;;;;;5.03;1.85;;;9.80;99.90;;;;;;5081057;28;20697;-61
2023/11/03 00:12:49;;;;;;;2.50;1.70;;;9.70;99.90;;;;;;5080783;28;20231;-61
2023/11/03 00:15:17;;;;;;;2.08;1.25;;;9.70;99.90;;;;;;5079634;28;20447;-61
2023/11/03 00:17:43;;;;;;;3.92;1.35;;;9.70;99.90;;;;;;5078658;28;20227;-61
2023/11/03 00:20:14;;;;;;;4.45;1.70;;;9.60;99.90;;;;;;5077731;28;20200;-61
2023/11/03 00:22:41;;;;;;;3.38;1.33;;;9.60;99.90;;;;;;5079631;28;20630;-62
2023/11/03 00:25:13;;;;;;;3.10;1.60;;;9.60;99.90;;;;;;5082285;28;20204;-62
2023/11/03 00:27:40;;;;;;;2.42;1.45;;;9.60;99.90;;;;;;5086506;28;20181;-62
2023/11/03 00:30:08;;;;;;;2.75;1.40;;;9.50;99.90;;;;;;5084062;28;20580;-60
2023/11/03 00:32:35;;;;;;;3.78;1.58;;;9.50;99.90;;;;;;5081464;28;20270;-61
2023/11/03 00:35:01;;;;;;;1.00;0.90;;;9.50;99.90;;;;;;5086696;28;20288;-61
2023/11/03 00:37:29;;;;;;;6.93;1.33;;;9.40;99.90;;;;;;5085361;28;20224;-61
2023/11/03 00:39:56;;;;;;;4.15;2.03;;;9.40;99.90;;;;;;5082703;28;20201;-61
2023/11/03 00:42:23;;;;;;;3.42;1.30;;;9.40;99.90;;;;;;5083462;28;20350;-61
2023/11/03 00:44:50;;;;;;;5.90;1.70;;;9.40;99.90;;;;;;5082810;28;20201;-61
2023/11/03 00:47:16;;;;;;;1.67;1.30;;;9.40;99.90;;;;;;5083729;28;20201;-61
2023/11/03 00:49:43;;;;;;;2.40;1.40;;;9.40;99.90;;;;;;5088388;28;20200;-63
2023/11/03 00:52:10;;;;;;;4.60;1.67;;;9.30;99.90;;;;;;5081616;28;20232;-61
2023/11/03 00:54:38;;;;;;;5.40;1.92;;;9.30;99.90;;;;;;5082505;28;20215;-61
2023/11/03 00:57:06;;;;;;;2.38;1.40;;;9.20;99.90;;;;;;5084008;28;20232;-62
2023/11/03 00:59:33;;;;;;;1.98;1.10;;;9.20;99.90;;;;;;5082670;28;20197;-61
2023/11/03 01:02:00;;;;;;;4.70;1.30;;;9.20;99.90;;;;;;5083372;28;20227;-61
2023/11/03 01:04:27;;;;;;;3.40;1.50;;;9.20;99.90;;;;;;5083505;28;20211;-62
2023/11/03 01:06:54;;;;;;;1.50;1.13;;;9.20;99.90;;;;;;5079807;28;20203;-62
2023/11/03 01:09:22;;;;;;;4.43;1.33;;;9.20;99.90;;;;;;5085893;28;20212;-61
2023/11/03 01:11:50;;;;;;;4.85;1.45;;;9.20;99.90;;;;;;5086212;28;20644;-62
2023/11/03 01:14:18;;;;;;;4.10;1.70;;;9.20;99.90;;;;;;5083881;28;20689;-62
2023/11/03 01:16:45;;;;;;;12.48;1.90;;;9.20;99.90;;;;;;5086447;28;20568;-61
2023/11/03 01:19:12;;;;;;;4.50;1.50;;;9.20;99.90;;;;;;5081297;28;20205;-61
2023/11/03 01:21:39;;;;;;;4.13;1.60;;;9.20;99.90;;;;;;5082239;28;20694;-62
2023/11/03 01:24:10;;;;;;;4.20;1.55;;;9.20;99.90;;;;;;5082059;28;20225;-61
2023/11/03 01:26:36;;;;;;;6.70;1.85;;;9.20;99.90;;;;;;5082582;28;20201;-62
2023/11/03 01:29:05;;;;;;;4.80;1.50;;;9.20;99.90;;;;;;5082476;28;20197;-62
2023/11/03 01:31:32;;;;;;;3.58;1.48;;;9.20;99.90;;;;;;5082785;28;20644;-61
2023/11/03 01:33:59;;;;;;;2.45;1.65;;;9.10;99.90;;;;;;5081404;28;20292;-61
2023/11/03 01:36:26;;;;;;;2.58;1.80;;;9.10;99.90;;;;;;5083910;28;20205;-61
2023/11/03 01:38:53;;;;;;;5.13;1.65;;;9.10;99.90;;;;;;5083492;28;20726;-62
2023/11/03 01:41:19;;;;;;;2.70;1.50;;;9.10;99.90;;;;;;5084294;28;20201;-61
2023/11/03 01:44:07;;;;;;;6.43;1.20;;;9.00;99.90;;;;;;5084163;28;20216;-61
2023/11/03 01:46:37;;;;;;;3.17;1.60;;;9.00;99.90;;;;;;5081079;28;20207;-60
2023/11/03 01:49:05;;;;;;;3.40;1.85;;;8.90;99.90;;;;;;5081788;28;20204;-62
2023/11/03 01:51:32;;;;;;;4.25;1.70;;;8.90;99.90;;;;;;5078206;28;20217;-62
2023/11/03 01:54:00;;;;;;;4.18;1.30;;;8.90;99.90;;;;;;5077726;28;20205;-62
2023/11/03 01:56:27;;;;;;;7.07;1.55;;;8.80;99.90;;;;;;5078016;28;20546;-62
2023/11/03 01:58:54;;;;;;;2.38;1.20;;;8.80;99.90;;;;;;5077381;28;20216;-61
2023/11/03 02:01:23;;;;;;;3.47;1.40;;;8.80;99.90;;;;;;5077252;28;20216;-61
2023/11/03 02:03:50;;;;;;;4.05;1.67;;;8.80;99.90;;;;;;5077326;28;20225;-63
2023/11/03 02:06:17;;;;;;;4.97;1.65;;;8.70;99.90;;;;;;5078128;28;20212;-61
2023/11/03 02:08:43;;;;;;;7.82;1.50;;;8.70;99.90;;;;;;5079891;28;20193;-61
2023/11/03 02:11:10;;;;;;;2.10;1.25;;;8.70;99.90;;;;;;5077118;28;20220;-62
2023/11/03 02:13:38;;;;;;;4.78;1.50;;;8.70;99.90;;;;;;5078160;28;20205;-61
2023/11/03 02:16:05;;;;;;;5.18;1.63;;;8.60;99.90;;;;;;5080918;28;20209;-61
2023/11/03 02:18:33;;;;;;;6.80;2.05;;;8.70;99.90;;;;;;5082426;28;20217;-61
2023/11/03 02:21:00;;;;;;;4.15;1.58;;;8.60;99.90;;;;;;5082440;28;20205;-61
2023/11/03 02:23:28;;;;;;;2.75;1.23;;;8.60;99.90;;;;;;5078726;28;20217;-60
2023/11/03 02:25:55;;;;;;;3.55;1.55;;;8.60;99.90;;;;;;5078917;28;20197;-61
2023/11/03 02:28:22;;;;;;;2.05;1.20;;;8.60;99.90;;;;;;5078154;28;20204;-60
2023/11/03 02:30:48;;;;;;;5.68;1.38;;;8.50;99.90;;;;;;5078416;28;20205;-60
2023/11/03 02:33:15;;;;;;;4.10;1.40;;;8.50;99.90;;;;;;5078462;28;20220;-61
2023/11/03 02:35:42;;;;;;;7.60;1.50;;;8.60;99.90;;;;;;5078562;28;20205;-61
2023/11/03 02:38:09;;;;;;;5.47;1.75;;;8.60;99.90;;;;;;5078292;28;20221;-60
2023/11/03 02:40:38;;;;;;;5.20;1.75;;;8.60;99.90;;;;;;5077811;28;20209;-61
2023/11/03 02:43:05;;;;;;;4.97;1.92;;;8.50;99.90;;;;;;5078750;28;20312;-61
2023/11/03 02:45:31;;;;;;;5.20;1.45;;;8.50;99.90;;;;;;5078363;28;20296;-61
2023/11/03 02:47:58;;;;;;;4.93;1.30;;;8.50;99.90;;;;;;5077164;28;20682;-61
2023/11/03 02:50:25;;;;;;;10.40;1.90;;;8.40;99.90;;;;;;5077259;28;20208;-61
2023/11/03 02:52:52;;;;;;;4.93;1.10;;;8.40;99.90;;;;;;5079133;28;20221;-61
2023/11/03 02:55:19;;;;;;;2.45;1.42;;;8.40;99.90;;;;;;5077098;28;20745;-61
2023/11/03 02:57:47;;;;;;;5.82;1.80;;;8.40;99.90;;;;;;5076809;28;20217;-62
2023/11/03 03:00:16;;;;;;;5.00;1.67;;;8.40;99.90;;;;;;5079319;28;20670;-61
2023/11/03 03:02:43;;;;;;;3.33;1.25;;;8.30;99.90;;;;;;5079999;28;20609;-61
2023/11/03 03:05:10;;;;;;;5.03;1.70;;;8.40;99.90;;;;;;5078499;28;20203;-61
2023/11/03 03:07:38;;;;;;;4.45;1.35;;;8.30;99.90;;;;;;5076919;28;20207;-61
2023/11/03 03:10:05;;;;;;;5.63;1.40;;;8.30;99.90;;;;;;5079019;28;20231;-61
2023/11/03 03:12:33;;;;;;;4.03;1.50;;;8.30;99.90;;;;;;5079213;28;20228;-61
2023/11/03 03:15:03;;;;;;;4.07;2.10;;;8.30;99.90;;;;;;5075921;28;20197;-61
2023/11/03 03:17:30;;;;;;;4.53;1.83;;;8.30;99.90;;;;;;5079847;28;20260;-61
2023/11/03 03:19:57;;;;;;;5.78;1.77;;;8.30;99.90;;;;;;5077708;28;20205;-61
2023/11/03 03:22:24;;;;;;;4.05;2.00;;;8.30;99.90;;;;;;5079959;28;20224;-61
2023/11/03 03:24:50;;;;;;;4.65;1.65;;;8.40;99.90;;;;;;5081168;28;20201;-61
2023/11/03 03:27:17;;;;;;;4.93;2.50;;;8.30;99.90;;;;;;5078962;28;20204;-61
2023/11/03 03:29:44;;;;;;;4.40;1.30;;;8.40;99.90;;;;;;5076338;28;20205;-62
2023/11/03 03:32:12;;;;;;;4.95;1.40;;;8.40;99.90;;;;;;5078502;28;20224;-61
2023/11/03 03:34:38;;;;;;;2.97;1.52;;;8.30;99.90;;;;;;5079098;28;20201;-61
2023/11/03 03:37:05;;;;;;;2.60;1.52;;;8.30;99.90;;;;;;5080524;28;20212;-62
2023/11/03 03:39:32;;;;;;;2.45;1.20;;;8.30;99.90;;;;;;5078949;28;20221;-60
2023/11/03 03:41:59;;;;;;;6.45;1.70;;;8.20;99.90;;;;;;5078922;28;20224;-61
2023/11/03 03:44:25;;;;;;;5.05;1.92;;;8.10;99.90;;;;;;5080294;28;20201;-61
2023/11/03 03:46:52;;;;;;;2.42;1.27;;;8.10;99.90;;;;;;5079540;28;20527;-62
2023/11/03 03:49:21;;;;;;;4.72;1.35;;;8.10;99.90;;;;;;5077613;28;20243;-61
2023/11/03 03:51:48;;;;;;;2.00;1.70;;;8.00;99.90;;;;;;5079163;28;20240;-61
2023/11/03 03:54:15;;;;;;;5.80;1.63;;;8.00;99.90;;;;;;5082093;28;20209;-62
2023/11/03 03:56:42;;;;;;;7.22;1.80;;;8.00;99.90;;;;;;5078864;28;20208;-62
2023/11/03 03:59:09;;;;;;;3.28;1.50;;;7.90;99.90;;;;;;5077745;28;20213;-61
2023/11/03 04:01:36;;;;;;;2.40;1.15;;;7.90;99.90;;;;;;5076147;28;20228;-62
2023/11/03 04:04:03;;;;;;;2.95;1.63;;;7.90;99.90;;;;;;5076832;28;20196;-62
2023/11/03 04:06:31;;;;;;;7.00;1.60;;;7.90;99.90;;;;;;5076618;28;20205;-61
2023/11/03 04:12:28;;;;;;;7.30;2.20;;;7.90;99.90;;;;;;5158857;27;20563;-61
2023/11/03 04:14:54;;;;;;;7.10;1.55;;;7.90;99.90;;;;;;5161299;27;20576;-62
2023/11/03 04:17:21;;;;;;;4.90;1.50;;;7.90;99.90;;;;;;5159105;27;20202;-61
2023/11/03 04:19:48;;;;;;;7.28;2.00;;;7.90;99.90;;;;;;5162866;27;20198;-61
2023/11/03 04:22:15;;;;;;;10.02;1.75;;;7.90;99.90;;;;;;5163564;27;20219;-61
2023/11/03 04:24:41;;;;;;;4.97;1.88;;;7.80;99.90;;;;;;5164020;27;20201;-61
2023/11/03 04:27:08;;;;;;;4.30;1.67;;;7.80;99.90;;;;;;5166757;27;20202;-60
2023/11/03 04:29:36;;;;;;;4.95;1.40;;;7.80;99.90;;;;;;5165821;27;20261;-62
2023/11/03 04:32:03;;;;;;;6.47;1.60;;;7.80;99.90;;;;;;5166559;27;20234;-61
2023/11/03 04:34:30;;;;;;;6.93;1.60;;;7.80;99.90;;;;;;5165347;27;20202;-61
2023/11/03 04:36:57;;;;;;;4.45;1.70;;;7.80;99.90;;;;;;5162248;27;20205;-61
2023/11/03 04:39:25;;;;;;;7.05;1.98;;;7.80;99.90;;;;;;5161866;27;20202;-61
2023/11/03 04:41:52;;;;;;;6.47;1.40;;;7.80;99.90;;;;;;5165488;27;20214;-60
2023/11/03 04:44:18;;;;;;;2.88;1.30;;;7.80;99.90;;;;;;5165850;27;20202;-61
2023/11/03 04:46:46;;;;;;;6.85;2.55;;;7.80;99.90;;;;;;5159381;27;20206;-61
2023/11/03 04:49:13;;;;;;;6.30;1.90;;;7.70;99.90;;;;;;5158868;27;20290;-61
2023/11/03 04:51:40;;;;;;;5.05;1.63;;;7.70;99.90;;;;;;5157023;27;20218;-61
2023/11/03 04:54:08;;;;;;;3.80;1.70;;;7.70;99.90;;;;;;5154277;27;20202;-60
2023/11/03 04:56:35;;;;;;;3.83;2.00;;;7.60;99.90;;;;;;5153003;27;20203;-62
2023/11/03 04:59:02;;;;;;;10.35;2.15;;;7.60;99.90;;;;;;5152771;27;20670;-61
2023/11/03 05:01:30;;;;;;;9.07;2.22;;;7.60;99.90;;;;;;5152477;27;20221;-61
2023/11/03 05:03:58;;;;;;;4.13;1.67;;;7.60;99.90;;;;;;5152381;27;20203;-62
2023/11/03 05:06:25;;;;;;;6.80;2.08;;;7.60;99.90;;;;;;5152059;27;20195;-61
2023/11/03 05:08:52;;;;;;;6.47;2.05;;;7.60;99.90;;;;;;5152348;27;20199;-62
2023/11/03 05:11:18;;;;;;;8.30;2.20;;;7.60;99.90;;;;;;5151491;27;20242;-61
2023/11/03 05:13:45;;;;;;;6.38;1.88;;;7.70;99.90;;;;;;5151790;27;20225;-61
2023/11/03 05:16:12;;;;;;;4.43;1.45;;;7.70;99.90;;;;;;5151757;27;20198;-62
2023/11/03 05:18:40;;;;;;;4.43;2.25;;;7.70;99.90;;;;;;5151520;27;20206;-61
2023/11/03 05:21:12;;;;;;;5.05;1.90;;;7.70;99.90;;;;;;5151480;27;20190;-61
2023/11/03 05:23:39;;;;;;;4.72;1.67;;;7.80;99.90;;;;;;5138763;27;20534;-62
2023/11/03 05:26:06;;;;;;;4.03;1.50;;;7.80;99.90;;;;;;5138395;27;20195;-62
2023/11/03 05:28:32;;;;;;;6.80;1.77;;;7.80;99.90;;;;;;5137308;27;20203;-61
2023/11/03 05:30:59;;;;;;;3.63;1.70;;;7.80;99.90;;;;;;5137545;27;20230;-60
2023/11/03 05:33:26;;;;;;;5.47;1.80;;;7.80;99.90;;;;;;5137377;27;20251;-61
2023/11/03 05:35:52;;;;;;;3.75;1.65;;;7.80;99.90;;;;;;5137649;27;20202;-61
2023/11/03 05:38:20;;;;;;;5.07;1.60;;;7.90;99.90;;;;;;5137734;27;20310;-60
2023/11/03 05:40:47;;;;;;;6.03;1.90;;;7.90;99.90;;;;;;5137560;27;20195;-60
2023/11/03 05:43:14;;;;;;;3.75;1.40;;;7.90;99.90;;;;;;5139260;27;20222;-60
2023/11/03 05:45:41;;;;;;;8.93;1.90;;;7.90;99.90;;;;;;5138041;27;20203;-61
2023/11/03 05:48:08;;;;;;;3.53;1.33;;;7.90;99.90;;;;;;5137257;27;20669;-62
2023/11/03 05:50:35;;;;;;;5.32;1.70;;;8.00;99.90;;;;;;5137494;27;20195;-62
2023/11/03 05:53:01;;;;;;;4.07;1.65;;;8.00;99.90;;;;;;5136795;27;20211;-60
2023/11/03 05:55:29;;;;;;;4.43;1.73;;;8.00;99.90;;;;;;5137795;27;20226;-61
2023/11/03 05:57:56;;;;;;;2.97;1.42;;;8.00;99.90;;;;;;5137560;27;20202;-60
2023/11/03 06:00:27;;;;;;;3.72;1.40;;;8.10;99.90;;;;;;5137273;27;20195;-60
2023/11/03 06:02:55;;;;;;;4.45;1.65;;;8.20;99.90;;;;;;5137321;27;20237;-61
2023/11/03 06:05:21;;;;;;;2.45;1.45;;;8.20;99.90;;;;;;5137578;27;20198;-60
2023/11/03 06:07:48;;;;;;;4.18;1.80;;;8.20;99.90;;;;;;5137670;27;20222;-60
2023/11/03 06:10:15;;;;;;;4.88;1.35;;;8.30;99.90;;;;;;5138730;27;20256;-61
2023/11/03 06:12:43;;;;;;;4.00;1.60;;;8.30;99.90;;;;;;5138495;27;20586;-61
2023/11/03 06:15:11;;;;;;;3.78;1.80;;;8.40;99.90;;;;;;5136902;27;20207;-61
2023/11/03 06:17:38;;;;;;;4.75;2.08;;;8.40;99.90;;;;;;5137634;27;20209;-61
2023/11/03 06:20:08;;;;;;;5.63;1.90;;;8.40;99.90;;;;;;5136316;27;20525;-61
2023/11/03 06:22:34;;;;;;;3.10;1.30;;;8.50;99.90;;;;;;5136409;27;20219;-61
2023/11/03 06:25:00;;;;;;;4.97;1.50;;;8.60;99.90;;;;;;5136414;27;20282;-61
2023/11/03 06:27:27;;;;;;;3.08;1.30;;;8.60;99.90;;;;;;5136298;27;20937;-60
2023/11/03 06:29:55;;;;;;;6.03;1.60;;;8.70;99.90;;;;;;5136433;27;20241;-61
2023/11/03 06:32:22;;;;;;;4.05;1.83;;;8.70;99.90;;;;;;5136175;27;20765;-61
2023/11/03 06:34:49;;;;;;;5.85;2.25;;;8.70;99.90;;;;;;5136210;27;20209;-62
2023/11/03 06:37:16;;;;;;;2.70;1.30;;;8.80;99.90;;;;;;5136622;27;20207;-61
2023/11/03 06:39:43;;;;;;;6.80;1.65;;;8.80;99.90;;;;;;5136614;27;20210;-60
2023/11/03 06:42:10;;;;;;;6.13;2.45;;;8.90;99.90;;;;;;5135977;27;20219;-60
2023/11/03 06:44:37;;;;;;;5.25;2.10;;;8.90;99.90;;;;;;5136206;27;20214;-60
2023/11/03 06:47:05;;;;;;;2.38;1.60;;;8.90;99.90;;;;;;5136000;27;20203;-61
2023/11/03 06:49:33;;;;;;;4.25;1.40;;;9.00;99.90;;;;;;5135962;27;20225;-60
2023/11/03 06:52:00;;;;;;;4.20;1.85;;;9.00;99.90;;;;;;5135574;27;20891;-61
2023/11/03 06:54:27;;;;;;;3.53;1.70;;;9.10;99.90;;;;;;5136353;27;20203;-60
2023/11/03 06:56:54;;;;;;;6.97;1.90;;;9.10;99.90;;;;;;5136409;27;20194;-62
2023/11/03 06:59:20;;;;;;;4.07;1.20;;;9.20;99.90;;;;;;5136027;27;20198;-60
2023/11/03 07:01:48;;;;;;;4.97;1.35;;;9.20;99.90;;;;;;5136522;27;20222;-61
2023/11/03 07:04:16;;;;;;;2.33;1.17;;;9.30;99.90;;;;;;5137336;27;20232;-61
2023/11/03 07:06:43;;;;;;;1.77;1.60;;;9.30;99.90;;;;;;5138292;27;20199;-60
2023/11/03 07:09:11;;;;;;;3.75;1.80;;;9.40;99.90;;;;;;5138108;27;20210;-61
2023/11/03 07:11:37;;;;;;;2.50;1.60;;;9.50;99.90;;;;;;5138884;27;20226;-61
2023/11/03 07:14:05;;;;;;;4.18;1.48;;;9.50;99.90;;;;;;5138535;27;20670;-61
2023/11/03 07:16:33;;;;;;;2.63;1.40;;;9.60;99.90;;;;;;5138424;27;20203;-61
2023/11/03 07:19:00;;;;;;;7.25;1.33;;;9.60;99.90;;;;;;5138381;27;20476;-60
2023/11/03 07:21:28;;;;;;;5.40;2.13;;;9.70;99.90;;;;;;5139543;27;20668;-62
2023/11/03 07:23:54;;;;;;;3.40;1.40;;;9.80;99.90;;;;;;5140695;27;20207;-60
2023/11/03 07:26:22;;;;;;;6.60;2.15;;;9.80;99.90;;;;;;5138203;27;20194;-61
2023/11/03 07:28:49;;;;;;;7.40;1.90;;;9.80;99.90;;;;;;5139299;27;20252;-60
2023/11/03 07:31:16;;;;;;;3.93;1.70;;;9.90;99.90;;;;;;5140960;27;20441;-61
2023/11/03 07:33:43;;;;;;;6.37;2.63;;;9.90;99.90;;;;;;5135149;27;20453;-61
2023/11/03 07:36:10;;;;;;;11.93;2.90;;;9.90;99.90;;;;;;5135548;27;20443;-60
2023/11/03 07:38:39;;;;;;;6.47;2.00;;;10.00;99.90;;;;;;5135548;27;20443;-61
2023/11/03 07:41:08;;;;;;;3.33;1.60;;;10.00;99.90;;;;;;5135382;27;20475;-61
2023/11/03 07:43:35;;;;;;;2.10;1.13;;;10.00;99.90;;;;;;5136177;27;20440;-60
2023/11/03 07:46:01;;;;;;;2.53;1.50;;;10.10;99.90;;;;;;5135657;27;20485;-60
2023/11/03 07:48:28;;;;;;;4.23;1.50;;;10.10;99.90;;;;;;5135746;27;20441;-61
2023/11/03 07:50:55;;;;;;;7.27;2.03;;;10.20;99.90;;;;;;5135664;27;20451;-62
2023/11/03 07:53:22;;;;;;;4.70;1.40;;;10.20;99.90;;;;;;5137510;27;20484;-62
2023/11/03 07:55:50;;;;;;;4.63;2.03;;;10.30;99.90;;;;;;5137023;27;20444;-61
2023/11/03 07:58:17;;;;;;;4.83;1.33;;;10.30;99.90;;;;;;5137841;27;20490;-61
2023/11/03 08:00:44;;;;;;;3.00;1.40;;;10.30;99.90;;;;;;5137387;27;20436;-59
2023/11/03 08:03:12;;;;;;;2.80;1.73;;;10.30;99.90;;;;;;5139960;27;20484;-61
2023/11/03 08:05:39;;;;;;;8.67;1.90;;;10.30;99.90;;;;;;5139022;27;20822;-60
2023/11/03 08:08:07;;;;;;;2.60;1.60;;;10.30;99.90;;;;;;5140535;27;20437;-60
2023/11/03 08:10:33;;;;;;;3.60;1.67;;;10.30;99.90;;;;;;5139688;28;20867;-60
2023/11/03 08:13:01;;;;;;;5.83;1.50;;;10.30;99.90;;;;;;5143468;28;20489;-60
2023/11/03 08:15:28;;;;;;;3.30;1.30;;;10.30;99.90;;;;;;5143248;28;20436;-60
2023/11/03 08:17:55;;;;;;;3.43;1.60;;;10.30;99.90;;;;;;5141138;28;20437;-61
2023/11/03 08:20:22;;;;;;;4.53;1.40;;;10.40;99.90;;;;;;5134936;28;20455;-61
2023/11/03 08:22:49;;;;;;;4.10;1.40;;;10.40;99.90;;;;;;5134789;28;20475;-62
2023/11/03 08:25:16;;;;;;;4.27;1.20;;;10.40;99.90;;;;;;5134711;28;20820;-61
2023/11/03 08:27:44;;;;;;;3.10;1.43;;;10.50;99.90;;;;;;5134645;28;20441;-61
2023/11/03 08:30:12;;;;;;;3.60;1.60;;;10.60;99.90;;;;;;5134977;28;20436;-60
2023/11/03 08:32:39;;;;;;;2.53;1.60;;;10.60;99.90;;;;;;5135764;27;20476;-62
2023/11/03 08:35:07;;;;;;;2.37;1.10;;;10.70;99.90;;;;;;5134882;28;20444;-62
2023/11/03 08:37:34;;;;;;;4.57;2.10;;;10.70;99.90;;;;;;5134879;27;20472;-61
2023/11/03 08:40:01;;;;;;;5.00;1.20;;;10.70;99.90;;;;;;5134934;28;20441;-59
2023/11/03 08:42:26;;;;;;;2.47;1.50;;;10.80;99.90;;;;;;5134705;28;20515;-60
2023/11/03 08:44:53;;;;;;;3.17;1.50;;;10.80;99.90;;;;;;5134577;28;20432;-61
2023/11/03 08:47:21;;;;;;;2.53;1.00;;;10.90;99.90;;;;;;5134284;28;20203;-61
2023/11/03 08:49:48;;;;;;;4.60;1.50;;;11.00;99.90;;;;;;5134214;28;20439;-61
2023/11/03 08:52:15;;;;;;;2.53;1.13;;;11.10;99.90;;;;;;5134497;28;20844;-62
2023/11/03 08:54:41;;;;;;;2.83;1.50;;;11.10;99.90;;;;;;5134561;28;20445;-61
2023/11/03 08:57:09;;;;;;;3.87;1.60;;;11.20;99.90;;;;;;5136017;27;20444;-62
2023/11/03 08:59:36;;;;;;;4.17;1.23;;;11.30;99.90;;;;;;5139065;27;20917;-60
2023/11/03 09:02:03;;;;;;;4.67;1.27;;;11.30;99.40;;;;;;5138408;27;20448;-62
2023/11/03 09:04:31;;;;;;;3.00;1.20;;;11.40;99.20;;;;;;5138342;27;20524;-61
2023/11/03 09:06:58;;;;;;;2.47;1.33;;;11.50;98.80;;;;;;5138235;27;20486;-61
2023/11/03 09:09:27;;;;;;;3.43;1.43;;;11.50;98.40;;;;;;5138172;27;20961;-61
2023/11/03 09:11:53;;;;;;;3.30;1.47;;;11.50;97.80;;;;;;5139494;27;20487;-63
2023/11/03 09:14:20;;;;;;;2.03;0.90;;;11.50;97.50;;;;;;5140919;27;20446;-61
2023/11/03 09:16:47;;;;;;;3.67;1.80;;;11.50;97.00;;;;;;5138182;27;20445;-61
2023/11/03 09:19:14;;;;;;;1.90;1.07;;;11.40;96.90;;;;;;5138627;27;20447;-61
2023/11/03 09:21:42;;;;;;;3.33;1.33;;;11.40;96.70;;;;;;5139359;27;20460;-62
2023/11/03 09:24:09;;;;;;;5.77;1.53;;;11.30;96.50;;;;;;5140773;27;20500;-60
2023/11/03 09:26:35;;;;;;;3.47;1.03;;;11.20;96.60;;;;;;5144192;27;20770;-62
2023/11/03 09:29:02;;;;;;;3.73;1.23;;;11.10;96.70;;;;;;5143251;27;20632;-64
2023/11/03 09:31:29;;;;;;;4.40;1.10;;;11.10;96.90;;;;;;5141418;27;20468;-61
2023/11/03 09:33:56;;;;;;;1.93;1.10;;;11.10;96.80;;;;;;5139139;27;20472;-61
2023/11/03 09:36:23;;;;;;;4.67;1.40;;;11.00;96.90;;;;;;5141273;27;20437;-62
2023/11/03 09:38:51;;;;;;;3.23;1.67;;;11.00;96.90;;;;;;5140510;27;20445;-62
2023/11/03 09:41:19;;;;;;;3.50;1.57;;;11.00;97.10;;;;;;5139788;27;20462;-61
2023/11/03 09:43:47;;;;;;;11.87;1.77;;;11.00;97.10;;;;;;5140744;27;20433;-61
2023/11/03 09:46:15;;;;;;;6.17;1.63;;;11.00;97.10;;;;;;5142826;27;20444;-61
2023/11/03 09:48:42;;;;;;;9.70;1.93;;;11.00;97.20;;;;;;5143892;27;20444;-60
2023/11/03 09:51:09;;;;;;;7.40;1.93;;;11.00;97.10;;;;;;5143255;27;20444;-61
2023/11/03 09:53:37;;;;;;;6.93;1.97;;;11.10;97.20;;;;;;5143978;27;20508;-61
2023/11/03 09:56:07;;;;;;;4.03;1.50;;;11.10;97.10;;;;;;5144384;27;20445;-60
2023/11/03 09:58:34;;;;;;;4.13;1.43;;;11.20;97.10;;;;;;5141232;27;20440;-61
2023/11/03 10:01:04;;;;;;;3.67;1.20;;;11.20;96.90;;;;;;5140757;27;20448;-60
2023/11/03 10:03:31;;;;;;;3.60;1.30;;;11.30;96.70;;;;;;5140142;27;20471;-61
2023/11/03 10:06:02;;;;;;;5.70;1.60;;;11.30;96.50;;;;;;5137091;27;20436;-61
2023/11/03 10:08:29;;;;;;;7.70;1.57;;;11.40;96.20;;;;;;5136823;27;20425;-61
2023/11/03 10:10:59;;;;;;;5.07;1.33;;;11.50;95.90;;;;;;5136672;27;20456;-62
2023/11/03 10:13:32;;;;;;;5.80;1.37;;;11.60;95.70;;;;;;5136883;27;20481;-62
2023/11/03 10:16:00;;;;;;;2.57;1.23;;;11.70;95.50;;;;;;5136713;27;20512;-60
2023/11/03 10:18:27;;;;;;;3.17;1.00;;;11.80;95.00;;;;;;5136991;27;20863;-62
2023/11/03 10:20:57;;;;;;;2.03;1.03;;;12.00;94.70;;;;;;5137437;27;20443;-61
2023/11/03 10:23:25;;;;;;;4.63;1.80;;;12.10;94.00;;;;;;5138257;27;20456;-61
2023/11/03 10:25:52;;;;;;;4.93;1.57;;;12.10;93.60;;;;;;5137454;27;20494;-60
2023/11/03 10:28:20;;;;;;;4.03;1.40;;;12.20;93.30;;;;;;5137363;27;20436;-61
2023/11/03 10:30:55;;;;;;;4.40;1.70;;;12.30;92.90;;;;;;5137845;27;20457;-60
2023/11/03 10:33:24;;;;;;;7.03;1.43;;;12.40;92.40;;;;;;5137068;27;20529;-60
2023/11/03 10:35:52;;;;;;;6.67;1.57;;;12.40;92.00;;;;;;5139913;27;20539;-61
2023/11/03 10:38:20;;;;;;;3.53;1.73;;;12.60;91.70;;;;;;5140084;27;20444;-63
2023/11/03 10:40:46;;;;;;;6.57;1.43;;;12.80;91.30;;;;;;5138604;27;20436;-63
2023/11/03 10:43:14;;;;;;;5.70;1.53;;;12.90;90.60;;;;;;5139011;27;20980;-61
2023/11/03 10:45:48;;;;;;;4.97;1.07;;;13.00;90.30;;;;;;5139192;27;20844;-61
2023/11/03 10:48:22;;;;;;;6.00;1.70;;;13.10;89.80;;;;;;5139169;27;20470;-60
2023/11/03 10:50:55;;;;;;;3.93;1.60;;;13.20;88.90;;;;;;5138364;27;20450;-60
2023/11/03 10:53:31;;;;;;;2.83;1.80;;;13.40;87.80;;;;;;5138847;27;20473;-61
2023/11/03 10:56:02;;;;;;;4.33;1.37;;;13.60;86.10;;;;;;5138952;27;20424;-62
2023/11/03 10:58:30;;;;;;;5.83;1.73;;;13.60;85.10;;;;;;5137966;27;20421;-61
2023/11/03 11:01:07;;;;;;;9.40;1.60;;;13.60;84.50;;;;;;5137024;27;20879;-61
2023/11/03 11:03:42;;;;;;;10.77;2.17;;;13.50;83.70;;;;;;5137604;27;20421;-61
2023/11/03 11:06:16;;;;;;;9.67;1.80;;;13.30;83.50;;;;;;5137182;27;20508;-61
2023/11/03 11:08:46;;;;;;;5.10;1.70;;;13.20;83.90;;;;;;5136984;27;20599;-61
2023/11/03 11:11:13;;;;;;;4.67;1.27;;;13.20;83.70;;;;;;5136368;27;20495;-62
2023/11/03 11:13:42;;;;;;;4.87;2.10;;;13.10;83.30;;;;;;5136872;27;20842;-59
2023/11/03 11:16:12;;;;;;;5.80;2.17;;;13.10;83.30;;;;;;5136949;27;20509;-60
2023/11/03 11:18:52;;;;;;;6.00;2.37;;;13.10;83.30;;;;;;5137479;27;20496;-61
2023/11/03 11:21:27;;;;;;;6.60;1.60;;;13.00;83.30;;;;;;5137020;27;20837;-61
2023/11/03 11:23:56;;;;;;;10.13;2.10;;;13.00;83.30;;;;;;5139076;27;20428;-60
2023/11/03 11:26:26;;;;;;;3.63;1.80;;;13.00;83.00;;;;;;5141904;27;20441;-62
2023/11/03 11:28:53;;;;;;;3.03;1.50;;;13.00;83.00;;;;;;5144268;27;20892;-61
2023/11/03 11:31:39;;;;;;;6.97;2.00;;;13.10;83.20;;;;;;5141395;27;20946;-61
2023/11/03 11:34:10;;;;;;;3.73;1.40;;;13.20;83.10;;;;;;5139235;27;20813;-60
2023/11/03 11:36:39;;;;;;;7.77;2.07;;;13.20;82.90;;;;;;5139436;27;20417;-61
2023/11/03 11:39:14;;;;;;;8.50;1.73;;;13.20;82.80;;;;;;5144917;27;20441;-61
2023/11/03 11:41:50;;;;;;;4.93;1.80;;;13.30;82.70;;;;;;5142206;27;20470;-61
2023/11/03 11:44:19;;;;;;;5.37;1.47;;;13.30;82.70;;;;;;5138313;27;20448;-60
2023/11/03 11:46:51;;;;;;;4.90;2.70;;;13.20;82.40;;;;;;5139235;27;20505;-60
2023/11/03 11:49:21;;;;;;;6.47;1.60;;;13.20;82.80;;;;;;5139145;27;20477;-60
2023/11/03 11:51:48;;;;;;;3.73;1.43;;;13.20;82.80;;;;;;5138439;27;20457;-61
2023/11/03 11:54:18;;;;;;;5.13;1.70;;;13.10;82.70;;;;;;5139401;27;20477;-61
2023/11/03 11:56:45;;;;;;;5.57;1.40;;;13.10;83.00;;;;;;5138675;27;20432;-61
2023/11/03 11:59:14;;;;;;;7.43;2.40;;;13.10;83.00;;;;;;5136967;27;20493;-61
2023/11/03 12:01:42;;;;;;;3.53;1.60;;;13.00;83.00;;;;;;5136860;27;20463;-60
2023/11/03 12:04:09;;;;;;;6.30;1.80;;;13.00;83.40;;;;;;5136636;27;20471;-61
2023/11/03 12:06:37;;;;;;;5.33;1.63;;;13.00;83.50;;;;;;5137075;27;20934;-61
2023/11/03 12:09:04;;;;;;;6.27;1.80;;;13.00;83.60;;;;;;5138206;27;20953;-60
2023/11/03 12:11:31;;;;;;;3.53;1.60;;;13.10;83.80;;;;;;5137997;28;20480;-61
2023/11/03 12:13:58;;;;;;;6.73;2.07;;;13.20;83.60;;;;;;5138057;28;20843;-60
2023/11/03 12:16:25;;;;;;;2.33;1.37;;;13.40;83.30;;;;;;5137483;28;20529;-61
2023/11/03 12:18:53;;;;;;;5.83;1.57;;;13.50;82.90;;;;;;5136561;28;21047;-61
2023/11/03 12:21:20;;;;;;;3.10;1.60;;;13.50;82.50;;;;;;5136887;28;20440;-60
2023/11/03 12:23:49;;;;;;;2.97;1.43;;;13.50;82.40;;;;;;5137531;28;20441;-61
2023/11/03 12:26:15;;;;;;;4.73;1.90;;;13.60;82.50;;;;;;5137028;28;20443;-63
2023/11/03 12:28:44;;;;;;;5.00;1.43;;;13.60;82.60;;;;;;5136029;28;20445;-63
2023/11/03 12:31:12;;;;;;;9.27;2.73;;;13.60;82.70;;;;;;5137527;27;20493;-62
2023/11/03 12:33:39;;;;;;;8.17;1.73;;;13.60;82.90;;;;;;5139740;27;20514;-61
2023/11/03 12:36:06;;;;;;;5.47;2.33;;;13.70;82.90;;;;;;5141058;27;20436;-61
2023/11/03 12:38:43;;;;;;;7.10;1.70;;;13.60;82.80;;;;;;5141371;27;20432;-62
2023/11/03 12:41:16;;;;;;;4.40;1.80;;;13.70;83.00;;;;;;5140389;27;20425;-60
2023/11/03 12:44:00;;;;;;;2.80;1.50;;;13.70;83.10;;;;;;5141971;27;20439;-62
2023/11/03 12:46:29;;;;;;;8.03;2.20;;;13.60;83.10;;;;;;5139749;27;20421;-62
2023/11/03 12:49:06;;;;;;;6.10;1.87;;;13.70;83.20;;;;;;5140361;27;20519;-61
2023/11/03 12:51:34;;;;;;;3.73;1.70;;;13.70;83.00;;;;;;5140771;27;20456;-62
2023/11/03 12:54:02;;;;;;;5.10;2.20;;;13.70;82.80;;;;;;5140714;27;20576;-62
2023/11/03 12:56:49;;;;;;;4.30;1.63;;;13.60;82.80;;;;;;5141466;27;20441;-61
2023/11/03 12:59:18;;;;;;;3.13;1.50;;;13.50;82.60;;;;;;5141186;27;20474;-62